Time;durP1;ratioP1;P1;durP2;ratioP2;P2;SDS_P1;SDS_P2;PMS_P1;PMS_P2;Temp;Humidity;BMP_temperature;BMP_pressure;BME280_temperature;BME280_humidity;BME280_pressure;Samples;Min_cycle;Max_cycle;Signal;HPM_P1;HPM_P2
2023/09/14 00:02:02;;;;;;;7.50;4.10;;;;;;;19.81;100.00;100893.67;110007;1242;70883;-83
2023/09/14 00:04:31;;;;;;;6.40;4.20;;;;;;;19.80;100.00;100890.83;109882;1241;61232;-82
2023/09/14 00:07:00;;;;;;;11.30;4.20;;;;;;;19.82;100.00;100891.98;110044;1241;69465;-83
2023/09/14 00:09:29;;;;;;;8.70;4.60;;;;;;;19.82;100.00;100888.80;110139;1245;73631;-82
2023/09/14 00:11:58;;;;;;;7.20;4.20;;;;;;;19.78;100.00;100887.88;110226;1242;62171;-81
2023/09/14 00:14:27;;;;;;;7.60;4.00;;;;;;;19.81;100.00;100887.02;110004;1241;61346;-80
2023/09/14 00:16:55;;;;;;;6.50;4.20;;;;;;;19.80;100.00;100885.91;110013;1239;63523;-82
2023/09/14 00:19:26;;;;;;;8.50;4.40;;;;;;;19.75;100.00;100883.77;109862;1241;61439;-84
2023/09/14 00:21:55;;;;;;;8.30;4.40;;;;;;;19.72;100.00;100882.18;109997;1240;59792;-84
2023/09/14 00:24:24;;;;;;;14.10;4.50;;;;;;;19.68;100.00;100881.55;109794;1244;63093;-85
2023/09/14 00:26:52;;;;;;;6.30;4.00;;;;;;;19.66;100.00;100878.38;109975;1239;61829;-77
2023/09/14 00:29:21;;;;;;;7.30;4.20;;;;;;;19.62;100.00;100880.06;109998;1241;57444;-77
2023/09/14 00:31:50;;;;;;;8.70;4.20;;;;;;;19.62;100.00;100878.66;109821;1240;62819;-79
2023/09/14 00:34:19;;;;;;;6.30;4.30;;;;;;;19.66;100.00;100881.38;109843;1241;71988;-79
2023/09/14 00:36:48;;;;;;;6.40;4.20;;;;;;;19.70;100.00;100878.87;109810;1239;60389;-78
2023/09/14 00:39:17;;;;;;;10.30;4.80;;;;;;;19.59;100.00;100876.13;109789;1244;62242;-79
2023/09/14 00:41:46;;;;;;;15.30;5.90;;;;;;;19.57;100.00;100872.09;109822;1242;62124;-77
2023/09/14 00:44:15;;;;;;;9.30;4.30;;;;;;;19.56;100.00;100874.00;109841;1240;61379;-81
2023/09/14 00:46:44;;;;;;;10.90;4.40;;;;;;;19.55;100.00;100874.80;109887;1241;63783;-82
2023/09/14 00:49:14;;;;;;;8.10;4.00;;;;;;;19.55;100.00;100867.67;109821;1239;60635;-83
2023/09/14 00:51:43;;;;;;;8.90;4.40;;;;;;;19.55;100.00;100865.59;109787;1241;70420;-74
2023/09/14 00:54:11;;;;;;;9.70;4.20;;;;;;;19.45;100.00;100865.48;109753;1241;73578;-74
2023/09/14 00:56:41;;;;;;;8.40;4.30;;;;;;;19.41;100.00;100863.83;109909;1241;61493;-77
2023/09/14 00:59:10;;;;;;;7.30;4.50;;;;;;;19.33;100.00;100863.16;109787;1241;57669;-77
2023/09/14 01:01:39;;;;;;;9.80;4.30;;;;;;;19.28;100.00;100861.96;109741;1239;72776;-76
2023/09/14 01:04:08;;;;;;;6.30;3.90;;;;;;;19.23;100.00;100855.06;109813;1241;72063;-77
2023/09/14 01:06:37;;;;;;;6.00;4.10;;;;;;;19.15;100.00;100860.67;109808;1241;70714;-81
2023/09/14 01:09:06;;;;;;;6.50;4.40;;;;;;;19.10;100.00;100863.00;109762;1239;72771;-77
2023/09/14 01:11:35;;;;;;;10.60;4.90;;;;;;;19.05;100.00;100862.24;109743;1244;57742;-77
2023/09/14 01:14:24;;;;;;;11.80;4.90;;;;;;;19.01;100.00;100861.67;109733;1244;57788;-76
2023/09/14 01:17:06;;;;;;;5.80;4.20;;;;;;;18.99;100.00;100859.25;109802;1240;73548;-76
2023/09/14 01:19:53;;;;;;;5.70;4.10;;;;;;;18.97;100.00;100859.13;109654;1241;71284;-76
2023/09/14 01:23:18;;;;;;;6.80;4.20;;;;;;;19.00;100.00;100860.55;109793;1241;70894;-85
2023/09/14 01:25:49;;;;;;;11.00;4.60;;;;;;;18.97;100.00;100859.98;109925;1239;63677;-84
2023/09/14 01:28:18;;;;;;;6.40;4.50;;;;;;;18.86;100.00;100860.48;109753;1241;61879;-85
2023/09/14 01:30:47;;;;;;;13.20;4.40;;;;;;;18.83;100.00;100858.84;109795;1243;57724;-84
2023/09/14 01:33:17;;;;;;;8.60;4.80;;;;;;;18.80;100.00;100859.64;109776;1244;62828;-85
2023/09/14 01:36:14;;;;;;;7.60;4.30;;;;;;;18.78;100.00;100857.18;109856;1244;60803;-85
2023/09/14 01:38:44;;;;;;;8.00;4.60;;;;;;;18.69;100.00;100856.15;109680;1239;69575;-82
2023/09/14 01:41:14;;;;;;;8.10;4.30;;;;;;;18.62;100.00;100856.42;109847;1241;64427;-80
2023/09/14 01:43:46;;;;;;;8.00;4.90;;;;;;;18.52;100.00;100857.75;109826;1245;61539;-78
2023/09/14 01:46:15;;;;;;;8.70;5.10;;;;;;;18.47;100.00;100859.50;109792;1241;60946;-79
2023/09/14 01:48:45;;;;;;;5.40;4.10;;;;;;;18.43;100.00;100866.33;109851;1241;61970;-76
2023/09/14 01:51:14;;;;;;;10.70;4.90;;;;;;;18.40;100.00;100862.36;110014;1241;62093;-76
2023/09/14 01:53:43;;;;;;;6.30;4.60;;;;;;;18.35;100.00;100863.80;109825;1241;70263;-76
2023/09/14 01:56:11;;;;;;;7.90;4.80;;;;;;;18.24;100.00;100861.55;109762;1241;73993;-78
2023/09/14 01:58:41;;;;;;;7.30;4.20;;;;;;;18.18;100.00;100857.54;109761;1244;62307;-79
2023/09/14 02:01:10;;;;;;;7.10;4.80;;;;;;;18.10;100.00;100855.41;109795;1241;59565;-79
2023/09/14 02:03:39;;;;;;;8.10;4.80;;;;;;;18.05;100.00;100857.20;109787;1241;74091;-82
2023/09/14 02:06:07;;;;;;;8.00;5.00;;;;;;;18.02;100.00;100859.71;109808;1241;72503;-78
2023/09/14 02:08:36;;;;;;;5.40;4.40;;;;;;;18.02;100.00;100860.77;109829;1240;59436;-78
2023/09/14 02:11:05;;;;;;;9.30;5.00;;;;;;;18.06;100.00;100862.69;109798;1244;63574;-79
2023/09/14 02:13:34;;;;;;;8.50;4.80;;;;;;;18.11;100.00;100863.55;109921;1241;62007;-78
2023/09/14 02:16:03;;;;;;;8.90;5.00;;;;;;;18.18;100.00;100863.03;109716;1244;57234;-78
2023/09/14 02:18:33;;;;;;;10.90;5.00;;;;;;;18.23;100.00;100863.20;109684;1240;73617;-78
2023/09/14 02:21:01;;;;;;;6.60;4.90;;;;;;;18.30;100.00;100861.67;109579;1240;71951;-79
2023/09/14 02:23:30;;;;;;;9.20;4.80;;;;;;;18.34;100.00;100858.46;109646;1240;60377;-80
2023/09/14 02:25:59;;;;;;;8.90;4.80;;;;;;;18.31;100.00;100859.03;109788;1241;62232;-81
2023/09/14 02:28:28;;;;;;;6.90;4.40;;;;;;;18.33;100.00;100863.05;109774;1241;61710;-79
2023/09/14 02:30:56;;;;;;;7.00;4.40;;;;;;;18.36;100.00;100863.52;109706;1242;57547;-79
2023/09/14 02:33:26;;;;;;;8.30;5.40;;;;;;;18.37;100.00;100857.54;109640;1240;73411;-84
2023/09/14 02:35:55;;;;;;;17.30;8.00;;;;;;;18.40;100.00;100863.47;109846;1242;62338;-85
2023/09/14 02:38:24;;;;;;;13.00;7.40;;;;;;;18.32;100.00;100867.63;109935;1241;59044;-85
2023/09/14 02:40:53;;;;;;;11.70;6.80;;;;;;;18.26;100.00;100864.30;109621;1244;72120;-84
2023/09/14 02:43:22;;;;;;;10.60;6.40;;;;;;;18.26;100.00;100865.52;109643;1241;63212;-86
2023/09/14 02:45:51;;;;;;;13.80;6.30;;;;;;;18.17;100.00;100861.50;109757;1244;57772;-83
2023/09/14 02:48:20;;;;;;;11.70;5.10;;;;;;;18.03;100.00;100859.98;109787;1243;61971;-83
2023/09/14 02:50:49;;;;;;;7.70;5.40;;;;;;;17.91;100.00;100857.80;109963;1241;60630;-83
2023/09/14 02:55:51;;;;;;;11.00;5.60;;;;;;;17.85;100.00;100858.19;105583;1280;601689;-82
2023/09/14 02:58:20;;;;;;;7.40;4.70;;;;;;;17.90;100.00;100856.67;107912;1249;57517;-84
2023/09/14 03:00:49;;;;;;;10.70;5.20;;;;;;;17.98;100.00;100859.04;107554;1248;57257;-82
2023/09/14 03:03:19;;;;;;;8.90;5.20;;;;;;;17.93;100.00;100864.33;107080;1248;71688;-81
2023/09/14 03:05:48;;;;;;;11.60;6.50;;;;;;;17.82;100.00;100866.89;106994;1248;71342;-80
2023/09/14 03:08:17;;;;;;;8.90;5.60;;;;;;;17.70;100.00;100864.30;106834;1254;359782;-82
2023/09/14 03:10:46;;;;;;;9.30;5.00;;;;;;;17.59;100.00;100866.31;108022;1249;73735;-84
2023/09/14 03:13:15;;;;;;;8.10;5.40;;;;;;;17.47;100.00;100869.48;108268;1248;58415;-87
2023/09/14 03:15:44;;;;;;;8.80;5.20;;;;;;;17.36;100.00;100865.77;108139;1248;60183;-81
2023/09/14 03:18:13;;;;;;;10.40;5.50;;;;;;;17.25;100.00;100866.11;107284;1248;72248;-88
2023/09/14 03:20:46;;;;;;;8.70;5.00;;;;;;;17.12;100.00;100863.55;107390;1255;61062;-86
2023/09/14 03:23:14;;;;;;;9.00;5.30;;;;;;;16.96;100.00;100866.73;107284;1251;70436;-82
2023/09/14 03:25:43;;;;;;;8.90;5.40;;;;;;;16.80;100.00;100866.50;107195;1248;64955;-85
2023/09/14 03:28:12;;;;;;;12.90;5.80;;;;;;;16.77;100.00;100865.88;107202;1258;62718;-84
2023/09/14 03:30:41;;;;;;;8.90;5.40;;;;;;;16.77;100.00;100866.84;107070;1251;57394;-82
2023/09/14 03:33:11;;;;;;;9.10;6.60;;;;;;;16.69;100.00;100867.55;107226;1248;62498;-85
2023/09/14 03:35:41;;;;;;;10.40;6.50;;;;;;;16.63;100.00;100864.70;107546;1249;71613;-86
2023/09/14 03:38:10;;;;;;;13.00;5.70;;;;;;;16.63;100.00;100869.61;107503;1245;71048;-84
2023/09/14 03:40:39;;;;;;;11.20;6.70;;;;;;;16.57;100.00;100866.37;107104;1258;63572;-87
2023/09/14 03:43:08;;;;;;;12.60;6.60;;;;;;;16.52;100.00;100866.88;107110;1248;58964;-79
2023/09/14 03:45:37;;;;;;;34.80;20.40;;;;;;;16.46;100.00;100869.52;107239;1249;60189;-86
2023/09/14 03:48:07;;;;;;;12.30;6.60;;;;;;;16.40;100.00;100872.71;107321;1244;71853;-87
2023/09/14 03:50:35;;;;;;;13.40;7.30;;;;;;;16.33;100.00;100876.38;107011;1258;62981;-84
2023/09/14 03:53:05;;;;;;;13.00;6.70;;;;;;;16.26;100.00;100880.06;107288;1249;59774;-87
2023/09/14 03:55:34;;;;;;;9.30;6.20;;;;;;;16.25;100.00;100883.61;107261;1255;73158;-83
2023/09/14 03:58:03;;;;;;;10.20;6.70;;;;;;;16.25;100.00;100888.89;107394;1246;62640;-82
2023/09/14 04:00:32;;;;;;;11.10;6.20;;;;;;;16.25;100.00;100889.15;107512;1255;61792;-89
2023/09/14 04:03:01;;;;;;;11.40;6.80;;;;;;;16.21;100.00;100886.62;107497;1256;72348;-82
2023/09/14 04:05:29;;;;;;;17.40;7.30;;;;;;;16.15;100.00;100885.42;107443;1244;72382;-87
2023/09/14 04:07:58;;;;;;;12.80;7.50;;;;;;;16.09;100.00;100886.34;107283;1256;60937;-85
2023/09/14 04:10:27;;;;;;;12.50;6.60;;;;;;;16.03;100.00;100889.02;107398;1244;63225;-85
2023/09/14 04:13:35;;;;;;;16.90;7.90;;;;;;;15.99;100.00;100888.20;107403;1245;57848;-84
2023/09/14 04:16:09;;;;;;;21.80;8.30;;;;;;;15.95;100.00;100891.02;107465;1245;62228;-77
2023/09/14 04:18:40;;;;;;;19.00;8.20;;;;;;;15.93;100.00;100890.98;107437;1248;62968;-80
2023/09/14 04:21:09;;;;;;;19.50;9.20;;;;;;;15.93;100.00;100888.21;107406;1244;71407;-77
2023/09/14 04:23:38;;;;;;;17.40;8.00;;;;;;;15.99;100.00;100881.00;107379;1256;59965;-81
2023/09/14 04:26:10;;;;;;;13.80;7.90;;;;;;;16.20;100.00;100880.21;107245;1251;63033;-82
2023/09/14 04:28:39;;;;;;;13.20;8.10;;;;;;;16.34;100.00;100883.30;107243;1245;58036;-81
2023/09/14 04:31:10;;;;;;;19.90;8.20;;;;;;;16.42;100.00;100884.33;107446;1244;60359;-82
2023/09/14 04:33:41;;;;;;;12.60;7.40;;;;;;;16.48;100.00;100880.63;107454;1245;62431;-80
2023/09/14 04:36:10;;;;;;;14.00;7.80;;;;;;;16.48;100.00;100884.26;107200;1246;61937;-82
2023/09/14 04:38:42;;;;;;;20.70;8.50;;;;;;;16.47;100.00;100887.24;107236;1251;70375;-78
2023/09/14 04:41:11;;;;;;;12.50;7.20;;;;;;;16.50;100.00;100889.58;107005;1248;72085;-81
2023/09/14 04:43:40;;;;;;;14.70;8.10;;;;;;;16.57;100.00;100888.14;107225;1245;63316;-80
2023/09/14 04:46:09;;;;;;;16.00;8.40;;;;;;;16.68;100.00;100886.25;107282;1246;61537;-78
2023/09/14 04:48:41;;;;;;;22.50;8.30;;;;;;;16.80;100.00;100888.30;107269;1244;73105;-78
2023/09/14 04:51:12;;;;;;;14.80;7.90;;;;;;;16.90;100.00;100890.89;107232;1244;72433;-79
2023/09/14 04:53:41;;;;;;;13.60;8.00;;;;;;;16.99;100.00;100888.92;107194;1253;61301;-78
2023/09/14 04:56:10;;;;;;;21.60;10.40;;;;;;;17.16;100.00;100889.90;107118;1256;62314;-79
2023/09/14 04:58:40;;;;;;;20.00;8.80;;;;;;;17.55;100.00;100886.29;107364;1244;61767;-79
2023/09/14 05:01:09;;;;;;;14.10;7.90;;;;;;;17.78;100.00;100886.27;107190;1256;61125;-79
2023/09/14 05:03:39;;;;;;;16.90;8.30;;;;;;;17.90;100.00;100881.96;107278;1243;72150;-79
2023/09/14 05:06:09;;;;;;;14.00;8.50;;;;;;;18.14;100.00;100877.70;107294;1245;72423;-79
2023/09/14 05:08:38;;;;;;;13.40;8.00;;;;;;;18.30;100.00;100879.06;107269;1245;70782;-80
2023/09/14 05:11:06;;;;;;;18.90;8.70;;;;;;;18.37;100.00;100878.14;107368;1244;74157;-81
2023/09/14 05:13:35;;;;;;;17.70;7.70;;;;;;;18.47;100.00;100880.02;107369;1255;59042;-81
2023/09/14 05:16:04;;;;;;;12.60;7.70;;;;;;;18.67;100.00;100874.79;107277;1245;59091;-80
2023/09/14 05:18:33;;;;;;;13.40;8.00;;;;;;;18.83;100.00;100874.20;107296;1243;62285;-81
2023/09/14 05:21:02;;;;;;;15.60;8.10;;;;;;;18.86;100.00;100872.58;107252;1254;70987;-80
2023/09/14 05:23:31;;;;;;;12.50;7.40;;;;;;;18.96;100.00;100872.48;107240;1256;70159;-80
2023/09/14 05:26:00;;;;;;;12.50;7.10;;;;;;;19.00;100.00;100871.11;107217;1248;63539;-79
2023/09/14 05:28:30;;;;;;;14.50;7.60;;;;;;;19.15;100.00;100868.34;107513;1244;61917;-81
2023/09/14 05:30:58;;;;;;;11.00;7.30;;;;;;;19.21;100.00;100868.50;107456;1245;60615;-80
2023/09/14 05:33:28;;;;;;;19.50;8.20;;;;;;;19.31;100.00;100861.66;107501;1256;72764;-83
2023/09/14 05:35:57;;;;;;;19.50;7.90;;;;;;;19.39;100.00;100859.26;107351;1244;73567;-81
2023/09/14 05:38:26;;;;;;;20.20;9.00;;;;;;;19.50;100.00;100859.92;107279;1244;70128;-80
2023/09/14 05:40:55;;;;;;;18.70;9.70;;;;;;;19.66;100.00;100857.89;107371;1256;63664;-79
2023/09/14 05:43:25;;;;;;;23.50;11.30;;;;;;;19.75;100.00;100854.25;107209;1247;62672;-80
2023/09/14 05:45:54;;;;;;;27.70;13.90;;;;;;;19.85;100.00;100853.21;107360;1247;59094;-82
2023/09/14 05:48:24;;;;;;;27.50;11.90;;;;;;;19.91;100.00;100851.88;107276;1246;72949;-80
2023/09/14 05:50:53;;;;;;;27.50;11.10;;;;;;;19.96;100.00;100850.71;107390;1244;72156;-78
2023/09/14 05:53:22;;;;;;;20.30;10.10;;;;;;;20.01;100.00;100851.59;107314;1244;60449;-81
2023/09/14 05:55:53;;;;;;;23.30;10.70;;;;;;;20.08;100.00;100854.38;107180;1248;62480;-82
2023/09/14 05:58:22;;;;;;;27.20;10.20;;;;;;;20.12;100.00;100854.75;107374;1245;58967;-80
2023/09/14 06:00:51;;;;;;;19.40;8.30;;;;;;;20.17;100.00;100856.01;107449;1245;58927;-81
2023/09/14 06:03:20;;;;;;;22.00;9.20;;;;;;;20.22;100.00;100857.98;107399;1254;62228;-80
2023/09/14 06:05:49;;;;;;;15.80;8.80;;;;;;;20.23;100.00;100856.21;107220;1248;73030;-81
2023/09/14 06:08:18;;;;;;;16.50;7.00;;;;;;;20.29;100.00;100860.22;107306;1248;59720;-81
2023/09/14 06:10:47;;;;;;;14.30;6.60;;;;;;;20.37;100.00;100861.59;107366;1255;63221;-81
2023/09/14 06:13:17;;;;;;;14.60;7.00;;;;;;;20.36;100.00;100860.95;107425;1244;61145;-83
2023/09/14 06:15:47;;;;;;;16.70;6.80;;;;;;;20.30;100.00;100861.96;107424;1245;57409;-82
2023/09/14 06:18:15;;;;;;;15.40;7.10;;;;;;;20.37;100.00;100863.10;107492;1244;72448;-81
2023/09/14 06:20:44;;;;;;;14.60;6.80;;;;;;;20.47;100.00;100864.89;107352;1244;61079;-84
2023/09/14 06:23:13;;;;;;;12.90;6.40;;;;;;;20.55;100.00;100862.24;107482;1246;59813;-82
2023/09/14 06:25:42;;;;;;;18.30;7.20;;;;;;;20.61;100.00;100860.66;107533;1246;63167;-81
2023/09/14 06:28:11;;;;;;;9.20;6.50;;;;;;;20.73;100.00;100864.09;107852;1244;58683;-82
2023/09/14 06:30:40;;;;;;;12.10;6.80;;;;;;;20.87;100.00;100865.61;107504;1241;57271;-82
2023/09/14 06:33:09;;;;;;;16.70;7.30;;;;;;;20.95;100.00;100862.72;107629;1255;71824;-82
2023/09/14 06:35:37;;;;;;;12.30;6.50;;;;;;;21.09;100.00;100862.06;107592;1241;71785;-82
2023/09/14 06:38:10;;;;;;;12.50;6.90;;;;;;;21.20;100.00;100868.80;107398;1248;71286;-82
2023/09/14 06:40:38;;;;;;;12.70;6.80;;;;;;;21.28;100.00;100867.41;107500;1245;74493;-83
2023/09/14 06:43:07;;;;;;;13.70;6.50;;;;;;;21.39;100.00;100872.98;107234;1247;59045;-82
2023/09/14 06:45:36;;;;;;;12.80;7.10;;;;;;;21.47;100.00;100874.26;107387;1255;60114;-83
2023/09/14 06:48:05;;;;;;;17.10;7.10;;;;;;;21.62;100.00;100876.07;107403;1245;62584;-83
2023/09/14 06:50:34;;;;;;;14.00;6.70;;;;;;;21.77;100.00;100875.94;107449;1241;72148;-81
2023/09/14 06:53:03;;;;;;;17.40;6.90;;;;;;;21.80;100.00;100876.05;107783;1253;60512;-81
2023/09/14 06:55:38;;;;;;;11.90;6.60;;;;;;;21.89;100.00;100870.20;107755;1241;73037;-80
2023/09/14 06:58:08;;;;;;;12.60;6.60;;;;;;;22.00;100.00;100872.86;108287;1247;59090;-82
2023/09/14 07:00:37;;;;;;;13.70;6.50;;;;;;;22.20;100.00;100871.80;107897;1241;60353;-86
2023/09/14 07:03:06;;;;;;;15.20;9.10;;;;;;;22.31;100.00;100873.77;107402;1244;73036;-85
2023/09/14 07:05:36;;;;;;;11.10;6.80;;;;;;;22.42;100.00;100874.53;107477;1251;72465;-83
2023/09/14 07:08:05;;;;;;;11.70;6.30;;;;;;;22.49;100.00;100875.28;107397;1255;59310;-81
2023/09/14 07:10:35;;;;;;;12.40;5.90;;;;;;;22.57;100.00;100872.80;107286;1255;63948;-82
2023/09/14 07:13:05;;;;;;;10.80;5.80;;;;;;;22.71;100.00;100871.01;107351;1242;60535;-81
2023/09/14 07:15:34;;;;;;;10.00;6.00;;;;;;;22.88;100.00;100868.83;107426;1244;59166;-82
2023/09/14 07:18:03;;;;;;;10.80;6.00;;;;;;;22.98;100.00;100866.65;108922;1241;72456;-82
2023/09/14 07:20:33;;;;;;;10.50;6.30;;;;;;;23.04;100.00;100868.11;109140;1244;61312;-82
2023/09/14 07:23:02;;;;;;;15.10;6.00;;;;;;;23.12;100.00;100869.27;109205;1243;69402;-82
2023/09/14 07:25:31;;;;;;;12.40;5.80;;;;;;;23.24;100.00;100872.49;109327;1244;72767;-83
2023/09/14 07:28:00;;;;;;;17.40;6.40;;;;;;;23.30;100.00;100867.36;109403;1241;57545;-78
2023/09/14 07:30:29;;;;;;;12.10;5.70;;;;;;;23.41;100.00;100863.60;108785;1241;60167;-82
2023/09/14 07:33:00;;;;;;;12.70;6.00;;;;;;;23.61;100.00;100859.11;107449;1244;73083;-82
2023/09/14 07:35:29;;;;;;;9.30;5.70;;;;;;;23.68;100.00;100860.82;107194;1241;63887;-82
2023/09/14 07:37:58;;;;;;;10.20;5.70;;;;;;;23.63;100.00;100859.00;107522;1245;60040;-81
2023/09/14 07:40:28;;;;;;;13.30;5.60;;;;;;;23.80;100.00;100861.50;107539;1243;62392;-82
2023/09/14 07:42:56;;;;;;;9.40;5.30;;;;;;;23.89;100.00;100859.96;107523;1244;61191;-83
2023/09/14 07:45:25;;;;;;;14.40;5.70;;;;;;;24.00;100.00;100858.98;107490;1244;60801;-81
2023/09/14 07:47:54;;;;;;;13.90;5.00;;;;;;;24.10;100.00;100861.25;107523;1245;65765;-82
2023/09/14 07:50:23;;;;;;;9.70;5.10;;;;;;;24.17;100.00;100862.11;107544;1244;61461;-83
2023/09/14 07:52:52;;;;;;;8.30;4.80;;;;;;;24.28;100.00;100859.80;107410;1254;68327;-82
2023/09/14 07:55:21;;;;;;;8.80;5.20;;;;;;;24.39;100.00;100861.00;107369;1248;62975;-82
2023/09/14 07:57:50;;;;;;;10.80;5.20;;;;;;;24.60;100.00;100860.35;107334;1251;58942;-83
2023/09/14 08:00:19;;;;;;;7.30;4.40;;;;;;;24.61;100.00;100863.52;107084;1241;61589;-82
2023/09/14 08:02:47;;;;;;;11.10;5.40;;;;;;;24.64;100.00;100862.88;107115;1247;64803;-82
2023/09/14 08:05:16;;;;;;;14.30;4.90;;;;;;;24.73;100.00;100861.27;107137;1241;61580;-83
2023/09/14 08:07:45;;;;;;;8.00;5.20;;;;;;;24.94;100.00;100852.79;107253;1241;69858;-82
2023/09/14 08:10:14;;;;;;;10.40;5.30;;;;;;;25.03;100.00;100853.23;107401;1246;64396;-83
2023/09/14 08:12:43;;;;;;;9.80;5.60;;;;;;;25.26;100.00;100852.84;107082;1241;59008;-82
2023/09/14 08:15:12;;;;;;;10.20;4.80;;;;;;;25.50;100.00;100854.09;107365;1244;58170;-83
2023/09/14 08:17:41;;;;;;;14.00;5.40;;;;;;;25.63;99.94;100853.02;107105;1241;71289;-83
2023/09/14 08:20:10;;;;;;;9.70;4.90;;;;;;;25.64;99.63;100848.09;107370;1241;71383;-82
2023/09/14 08:22:40;;;;;;;9.40;5.00;;;;;;;25.75;98.05;100846.63;107264;1241;60059;-83
2023/09/14 08:25:10;;;;;;;12.30;5.30;;;;;;;25.86;96.57;100845.72;107238;1241;73688;-83
2023/09/14 08:27:40;;;;;;;12.50;5.10;;;;;;;26.02;94.98;100845.73;107336;1242;60780;-83
2023/09/14 08:30:11;;;;;;;16.10;4.90;;;;;;;25.87;93.85;100840.77;107353;1241;61497;-83
2023/09/14 08:32:40;;;;;;;12.90;5.40;;;;;;;26.03;92.43;100835.61;107311;1244;75077;-83
2023/09/14 08:35:28;;;;;;;15.90;4.80;;;;;;;26.12;92.57;100834.21;107319;1241;71660;-83
2023/09/14 08:37:58;;;;;;;8.60;5.00;;;;;;;26.24;91.46;100832.70;107323;1251;59482;-83
2023/09/14 08:40:27;;;;;;;9.20;5.00;;;;;;;26.26;91.72;100831.42;107415;1244;73018;-83
2023/09/14 08:42:57;;;;;;;10.70;5.00;;;;;;;26.34;90.74;100834.11;107508;1246;61050;-83
2023/09/14 08:45:31;;;;;;;10.70;5.10;;;;;;;26.34;90.10;100831.98;107284;1250;58523;-83
2023/09/14 08:48:03;;;;;;;13.60;5.30;;;;;;;26.36;90.50;100825.30;107450;1248;64565;-84
2023/09/14 08:50:34;;;;;;;8.60;4.80;;;;;;;26.51;90.65;100830.40;107374;1245;72564;-87
2023/09/14 08:53:02;;;;;;;9.80;5.20;;;;;;;26.71;88.75;100825.13;107364;1251;70444;-84
2023/09/14 08:55:35;;;;;;;10.50;5.40;;;;;;;26.52;88.91;100825.83;107564;1245;66442;-84
2023/09/14 08:58:04;;;;;;;15.70;5.30;;;;;;;26.69;89.53;100822.91;107467;1244;61732;-84
2023/09/14 09:00:35;;;;;;;12.80;5.30;;;;;;;27.03;88.82;100823.51;107579;1248;61196;-84
2023/09/14 09:03:04;;;;;;;12.90;5.60;;;;;;;27.29;86.43;100824.29;108001;1244;64387;-85
2023/09/14 09:05:33;;;;;;;10.40;5.10;;;;;;;27.35;84.79;100822.83;107667;1241;62943;-85
2023/09/14 09:08:02;;;;;;;9.30;4.80;;;;;;;27.43;84.68;100824.05;107526;1244;61818;-85
2023/09/14 09:10:34;;;;;;;9.20;4.50;;;;;;;27.28;85.24;100823.67;107418;1254;63032;-85
2023/09/14 09:13:04;;;;;;;10.80;5.50;;;;;;;27.41;85.13;100822.47;107501;1241;59437;-86
2023/09/14 09:15:39;;;;;;;10.00;5.40;;;;;;;27.30;84.84;100819.12;107572;1250;60167;-86
2023/09/14 09:18:12;;;;;;;15.40;5.70;;;;;;;27.32;85.19;100818.27;107597;1254;62801;-85
2023/09/14 09:20:45;;;;;;;17.10;7.10;;;;;;;27.61;84.60;100806.68;108258;1244;71101;-84
2023/09/14 09:23:19;;;;;;;8.50;5.10;;;;;;;27.66;83.49;100806.66;107718;1244;69927;-86
2023/09/14 09:25:53;;;;;;;9.40;5.40;;;;;;;27.74;83.78;100804.10;107683;1241;63701;-86
2023/09/14 09:28:30;;;;;;;9.00;5.00;;;;;;;27.93;82.77;100804.13;107468;1245;61014;-86
2023/09/14 09:30:59;;;;;;;11.20;5.10;;;;;;;28.09;82.46;100799.96;107696;1242;58866;-85
2023/09/14 09:33:36;;;;;;;15.10;5.30;;;;;;;28.26;81.23;100795.38;107582;1244;64059;-85
2023/09/14 09:36:18;;;;;;;11.00;5.10;;;;;;;28.55;80.80;100788.94;107600;1251;61517;-86
2023/09/14 09:38:49;;;;;;;11.80;5.90;;;;;;;28.75;79.18;100786.58;107647;1244;59993;-86
2023/09/14 09:41:18;;;;;;;10.90;6.20;;;;;;;28.89;77.77;100784.50;107860;1241;72660;-86
2023/09/14 09:43:49;;;;;;;7.70;4.90;;;;;;;28.96;76.66;100781.27;107609;1244;60755;-86
2023/09/14 09:46:18;;;;;;;7.60;5.00;;;;;;;28.93;76.94;100778.61;107494;1254;57674;-87
2023/09/14 09:48:48;;;;;;;10.20;5.20;;;;;;;28.82;77.63;100771.48;107612;1241;73412;-87
2023/09/14 09:51:22;;;;;;;10.10;5.50;;;;;;;28.91;77.54;100770.38;107539;1245;61005;-87
2023/09/14 09:54:07;;;;;;;12.70;4.90;;;;;;;29.10;76.21;100770.42;107597;1241;70480;-86
2023/09/14 09:56:36;;;;;;;11.70;5.30;;;;;;;29.26;75.89;100771.98;107472;1244;65399;-87
2023/09/14 09:59:13;;;;;;;11.90;5.40;;;;;;;29.28;75.54;100768.40;108702;1241;57751;-85
2023/09/14 10:01:48;;;;;;;11.40;5.50;;;;;;;29.30;75.25;100759.30;108932;1241;57988;-85
2023/09/14 10:04:20;;;;;;;10.70;4.90;;;;;;;29.47;73.94;100761.86;108993;1244;62863;-86
2023/09/14 10:06:55;;;;;;;10.80;5.60;;;;;;;29.70;73.34;100750.91;108142;1241;62563;-86
2023/09/14 10:09:32;;;;;;;11.30;5.00;;;;;;;29.78;71.98;100751.79;107538;1245;59819;-86
2023/09/14 10:12:03;;;;;;;10.70;5.10;;;;;;;29.96;71.45;100746.95;107319;1245;73049;-87
2023/09/14 10:14:35;;;;;;;8.30;5.10;;;;;;;29.88;70.74;100746.84;107529;1244;57411;-86
2023/09/14 10:17:07;;;;;;;;;;;;;;;29.74;70.93;100743.30;107480;1245;59056;-86
2023/09/14 10:19:39;;;;;;;9.90;5.50;;;;;;;30.05;71.19;100740.36;107532;1241;73388;-86
2023/09/14 10:22:09;;;;;;;11.10;6.00;;;;;;;30.19;69.53;100743.82;107542;1245;61673;-85
2023/09/14 10:24:38;;;;;;;10.80;5.20;;;;;;;30.14;69.24;100746.52;107642;1244;58965;-85
2023/09/14 10:27:13;;;;;;;11.00;5.30;;;;;;;30.52;70.36;100741.77;107576;1245;63601;-86
2023/09/14 10:29:44;;;;;;;11.30;5.70;;;;;;;30.75;66.57;100740.72;107584;1244;59046;-86
2023/09/14 10:32:17;;;;;;;13.20;5.80;;;;;;;31.11;65.62;100739.55;109677;1244;57328;-86
2023/09/14 10:34:46;;;;;;;14.80;5.40;;;;;;;31.38;63.27;100733.61;109482;1241;63074;-89
2023/09/14 10:37:35;;;;;;;13.60;5.10;;;;;;;31.85;62.26;100728.80;109667;1241;72049;-88
2023/09/14 10:40:10;;;;;;;16.30;5.40;;;;;;;32.25;60.02;100724.64;109464;1245;60215;-82
2023/09/14 10:42:44;;;;;;;12.00;5.40;;;;;;;32.16;58.55;100720.64;109576;1244;63231;-81
2023/09/14 10:45:14;;;;;;;12.20;5.20;;;;;;;32.10;58.43;100719.48;109473;1241;60395;-78
2023/09/14 10:47:50;;;;;;;10.90;5.40;;;;;;;32.37;56.84;100714.88;109453;1241;57223;-81
2023/09/14 10:50:21;;;;;;;8.70;4.90;;;;;;;32.31;56.16;100713.95;109655;1244;63275;-76
2023/09/14 10:52:52;;;;;;;10.90;5.10;;;;;;;32.22;55.98;100710.89;109456;1246;60715;-85
2023/09/14 10:55:27;;;;;;;10.50;5.20;;;;;;;32.42;55.77;100710.30;109610;1241;60716;-89
2023/09/14 10:57:56;;;;;;;10.90;5.10;;;;;;;32.84;54.56;100704.56;109580;1245;63440;-82
2023/09/14 11:00:32;;;;;;;10.00;5.30;;;;;;;33.21;52.95;100709.45;109724;1241;60380;-83
2023/09/14 11:03:22;;;;;;;10.90;5.30;;;;;;;33.31;52.06;100709.02;109628;1241;57173;-81
2023/09/14 11:05:53;;;;;;;11.80;4.80;;;;;;;33.34;51.59;100702.83;109802;1245;62228;-83
2023/09/14 11:08:28;;;;;;;13.50;5.40;;;;;;;33.61;50.26;100702.54;109487;1241;63421;-85
2023/09/14 11:11:00;;;;;;;10.60;5.60;;;;;;;33.72;49.01;100697.55;109453;1244;59527;-80
2023/09/14 11:13:35;;;;;;;12.40;5.50;;;;;;;33.78;48.61;100696.06;109440;1244;63873;-84
2023/09/14 11:16:20;;;;;;;10.80;5.40;;;;;;;33.70;48.14;100696.02;109443;1244;57791;-82
2023/09/14 11:18:52;;;;;;;14.10;5.00;;;;;;;33.78;47.15;100690.27;109503;1242;57675;-85
2023/09/14 11:21:32;;;;;;;10.00;4.30;;;;;;;34.29;46.34;100689.27;109533;1244;64798;-84
2023/09/14 11:24:05;;;;;;;10.00;4.50;;;;;;;34.60;43.93;100686.46;109592;1241;62038;-79
2023/09/14 11:26:44;;;;;;;12.50;4.70;;;;;;;34.72;44.26;100686.30;109520;1241;70750;-85